WetterOnline ( https://www.wetteronline.de )

Wetter aktuell Memmingen

Aktuelles Wetter: Kempten (705m)

6-stündlich | Neueste Meldungen
Ortszeit Temperatur Wetter
Sa, 02.03. 1:00 3.0° C Nebel
Fr, 01.03. 19:00 4.8° C leichter Regen
Fr, 01.03. 13:00 4.5° C leichter Regen
Fr, 01.03. 7:00 3.9° C leicht bewölkt
Fr, 01.03. 1:00 1.9° C bedeckt
Do, 29.02. 19:00 4.6° C wolkenlos
Do, 29.02. 13:00 6.7° C bedeckt
Do, 29.02. 7:00 4.1° C bedeckt
Ortszeit Temperatur Wetter
Sa, 02.03. 1:00 3.0° C Nebel
Sa, 02.03. 0:50 3.0° C Nebel
Sa, 02.03. 0:40 3.0° C Nebel
Sa, 02.03. 0:30 3.2° C Nebel
Sa, 02.03. 0:20 3.2° C Nebel
Sa, 02.03. 0:10 3.3° C Nebel
Sa, 02.03. 0:00 3.4° C Nebel
Fr, 01.03. 23:30 3.3° C Nebel
Fr, 01.03. 23:00 3.2° C bedeckt
Fr, 01.03. 22:30 3.6° C bedeckt
Fr, 01.03. 22:00 3.8° C Sprühregen
Ortszeit Relative Feuchte Sichtweite
Sa, 02.03. 1:00 98% 0.9 km
Fr, 01.03. 19:00 94% 16 km
Fr, 01.03. 13:00 86% 27 km
Fr, 01.03. 7:00 92% 7 km
Fr, 01.03. 1:00 94% 5.0 km
Do, 29.02. 19:00 87% 10 km
Do, 29.02. 13:00 76% 17 km
Do, 29.02. 7:00 88% 10 km
Ortszeit Relative Feuchte Sichtweite
Sa, 02.03. 1:00 98% 0.9 km
Sa, 02.03. 0:50 98% -
Sa, 02.03. 0:40 97% -
Sa, 02.03. 0:30 98% 0.2 km
Sa, 02.03. 0:20 98% -
Sa, 02.03. 0:10 99% -
Sa, 02.03. 0:00 99% 0.2 km
Fr, 01.03. 23:30 97% 0.4 km
Fr, 01.03. 23:00 97% 3.0 km
Fr, 01.03. 22:30 97% 5.0 km
Fr, 01.03. 22:00 97% 5.0 km
Ortszeit Niederschlagsmenge Niederschlagsart
Sa, 02.03. 1:00 0.2 l/m2 in 6 Std. Regen
Fr, 01.03. 19:00 2 l/m2 in 12 Std. Regen
Fr, 01.03. 13:00 2 l/m2 in 6 Std. Regen
Fr, 01.03. 7:00 0.0 l/m2 in 12 Std. -
Fr, 01.03. 1:00 0.0 l/m2 in 6 Std. -
Do, 29.02. 19:00 0.0 l/m2 in 12 Std. -
Do, 29.02. 13:00 0.0 l/m2 in 6 Std. -
Do, 29.02. 7:00 0.0 l/m2 in 12 Std. -
Ortszeit Niederschlagsmenge Niederschlagsart
Sa, 02.03. 1:00 0.0 l/m2 in 1 Std. Regen
Sa, 02.03. 0:50 keine Meldung -
Sa, 02.03. 0:40 keine Meldung -
Sa, 02.03. 0:30 0.0 l/m2 in 30 Min -
Sa, 02.03. 0:20 keine Meldung -
Sa, 02.03. 0:10 keine Meldung -
Sa, 02.03. 0:00 0.0 l/m2 in 1 Std. -
Fr, 01.03. 23:30 0.0 l/m2 in 30 Min -
Fr, 01.03. 23:00 <0.05 l/m2 in 1 Std. Sprühregen
Fr, 01.03. 22:30 <0.05 l/m2 in 30 Min Schnee
Fr, 01.03. 22:00 <0.05 l/m2 in 1 Std. Regen
Ortszeit Stärke Spitze Richtung
km/h Bft. km/h Grad Sektor
Sa, 02.03. 1:00 4 1 7 100° O
Fr, 01.03. 19:00 2 1 15 80° O
Fr, 01.03. 13:00 7 2 22 240° SW
Fr, 01.03. 7:00 4 1 14 200° S
Fr, 01.03. 1:00 4 1 14 140° SO
Do, 29.02. 19:00 0 0 18 - -
Do, 29.02. 13:00 4 1 14 40° NO
Do, 29.02. 7:00 4 1 11 80° O
Ortszeit Stärke Spitze Richtung
km/h Bft. km/h Grad Sektor
Sa, 02.03. 1:00 4 1 7 100° O
Sa, 02.03. 0:50 4 1 - 100° O
Sa, 02.03. 0:40 4 1 - 110° O
Sa, 02.03. 0:30 4 1 7 100° O
Sa, 02.03. 0:20 4 1 - 100° O
Sa, 02.03. 0:10 4 1 - 110° O
Sa, 02.03. 0:00 6 1 9 120° SO
Fr, 01.03. 23:30 4 1 7 170° S
Fr, 01.03. 23:00 4 1 7 130° SO
Fr, 01.03. 22:30 4 1 7 120° SO
Fr, 01.03. 22:00 4 1 7 110° O
Ortszeit Untergrenze Bedeckung Gattung
total tief tief mittel hoch
Sa, 02.03. 1:00 <30 m 7/8 0/8 - - -
Fr, 01.03. 19:00 240 m 7/8 7/8 - - -
Fr, 01.03. 13:00 720 m 8/8 8/8 - - -
Fr, 01.03. 7:00 480 m 3/8 3/8 - - -
Fr, 01.03. 1:00 4800 m 8/8 8/8 - - -
Do, 29.02. 19:00 - 0/8 0/8 - - -
Do, 29.02. 13:00 390 m 8/8 8/8 - - -
Do, 29.02. 7:00 450 m 8/8 8/8 - - -
Ortszeit Bedeckungsgrad in Achtel und Wolkenuntergrenze
Sa, 02.03. 1:00 6(<30m) 7(2100m) 7(3000m)
Sa, 02.03. 0:50 6(<30m) 7(2100m) 7(3000m)
Sa, 02.03. 0:40 8
Sa, 02.03. 0:30 8(<30m) 8(3300m) 8(4800m)
Sa, 02.03. 0:20 8(<30m) 8(3300m) 8(4800m)
Sa, 02.03. 0:10 8
Sa, 02.03. 0:00 8(<30m) 8(2400m)
Fr, 01.03. 23:30 8(30m) 8(1800m) 8(2400m)
Fr, 01.03. 23:00 2(30m) 8(2400m) 8(4200m)
Fr, 01.03. 22:30 1(1500m) 3(2100m) 8(2700m)
Fr, 01.03. 22:00 4(1800m) 4(2400m) 8(3000m)
Ortszeit Luftdruck NN (hPa) Tendenz (hPa in 3 Std.)
Sa, 02.03. 1:00 1008 - 1,2
Fr, 01.03. 19:00 1009 - 0,1
Fr, 01.03. 13:00 1010 - 0,3
Fr, 01.03. 7:00 1009 + 1,4
Fr, 01.03. 1:00 1009 - 0,9
Do, 29.02. 19:00 1011 - 0,9
Do, 29.02. 13:00 1014 - 2,3
Do, 29.02. 7:00 1018 - 1,2
Ortszeit Luftdruck NN (hPa) Tendenz (hPa in 3 Std.)
Sa, 02.03. 1:00 1008 - 1,2
Sa, 02.03. 0:50 1008 keine Meldung
Sa, 02.03. 0:40 1008 keine Meldung
Sa, 02.03. 0:30 1008 - 1,2
Sa, 02.03. 0:20 1008 keine Meldung
Sa, 02.03. 0:10 1008 keine Meldung
Sa, 02.03. 0:00 1008 - 0,9
Fr, 01.03. 23:30 1008 - 0,7
Fr, 01.03. 23:00 1009 - 0,6
Fr, 01.03. 22:30 1009 - 0,5
Fr, 01.03. 22:00 1009 - 0,3
Ortszeit Schneehöhe (cm)
Sa, 02.03. 1:00 0
Fr, 01.03. 19:00 0
Fr, 01.03. 13:00 0
Fr, 01.03. 7:00 0
Fr, 01.03. 1:00 0
Do, 29.02. 19:00 0
Do, 29.02. 13:00 0
Do, 29.02. 7:00 0
Ortszeit Schneehöhe (cm)
Sa, 02.03. 1:00 0
Sa, 02.03. 0:50 0
Sa, 02.03. 0:40 -
Sa, 02.03. 0:30 0
Sa, 02.03. 0:20 0
Sa, 02.03. 0:10 -
Sa, 02.03. 0:00 0
Fr, 01.03. 23:30 0
Fr, 01.03. 23:00 0
Fr, 01.03. 22:30 0
Fr, 01.03. 22:00 0
Link zu dieser Seite / Seite empfehlen

Das Wetter in ...